Maré Airport
NWWR : rendu visible

Aérodrome :











RETROUVEZ-NOUS SUR...

 
LOGIN :

S'inscrire | Disclaimer

   EN    FR    IT 

 









Légende :    VFR   VFR Marginal   IFR   IFR Intensif   IFR Très Intensif
Visi : 
Plafond : 
>= 8 km
>= 3000ft
5 à 8 km
1000 à 3000 ft
1500m à 5 km
500 à 1000 ft
800 à 1500m
200 à 500 ft
< 800m
< 200 ft
Symboles :   Orages  Brouillard  Fortes neiges  Fortes précipitations  Vent > 20 kt






- Altitude de l'aérodrome : 141 ft
- Code IATA : MEE


NWWR - Maré

METAR N/A
TAF TAF NWWR
Valide du 29 à 12h jusqu'au 30 à 12h UTC


291100Z 2912/3012 18010KT 9999 SCT015 BKN030 OVC050
BECMG 2922/2924 12020G30KT
BECMG 3008/3010 12010KT
TEMPO 2912/2924 4000 SHRA BKN008 BKN012 SCT018TCU
PROB30
TEMPO 2912/2918 2000 +SHRA BKN008 BKN012 FEW015CB
FIR NFFF / Océanie



MET'MAP, la Météo Aéronautique d'un coup d'oeil ! - Copyright ORBIFLY Décembre 2007 - Disclaimer

ORBIFLY MET'MAP TEAM :

Programmation & Développement : Alexandra Zaïnal
Sur une idée originale de : Baudouin d'Aumeries
Assistance à la programmation : Marc-Olivier Méhu
Soutien technique & logistique : Manuel Goepfert

Contact : metmap@orbifly.com




SOURCES & CREDITS :

   NOAA       Earth
Advisory